Terminal Aerodrome Forecast
Issued by NWS

Home | Current Version | Previous Version | Text Only | Print | Product List | Glossary On
Versions: 1 2 3 4 5 6 7 8 9 10 11 12 13 14 15
141
FTUS42 KJAX 272339
TAFCRG
TAF
KCRG 272339Z 2800/2824 12007KT P6SM FEW050 BKN250
     FM280200 15003KT P6SM BKN250
     FM280700 VRB02KT 5SM BR SCT040
     FM281000 VRB02KT 2SM BR SCT002
      TEMPO 2810/2813 3/4SM BR SCT001 OVC005
     FM281400 15010KT P6SM SCT040=

USA.gov is the U.S. government's official web portal to all federal, state and local government web resources and services.